Phoenix, Arizona
Traffic Map
Current Weather Conditions
Phoenix, Arizona
Clear
Clear
79°
Feels Like: 79°
Wind Chill: 79° Ceiling: Unl
Heat Index: 79° Visibility: 10mi
Dew Point: 27° Wind: 0mph
Humidity: 15% Direction: ° ()
Pressure: 29.99in Gusts: 0mph
Raw Report DataKPHX 280451Z 00000KT 10SM CLR 26/M03 A2999 RMK AO2 SLP139 T02611028
Traffic Incident Summary
Active as of:
Severity:
Category:
InformationThere was an issue retrieving the traffic information for this location. Please try a different location or try again shortly.
Advertisements
Track Severe Weather on mobile